sensor_id;sensor_type;location;lat;lon;timestamp;P1;durP1;ratioP1;P2;durP2;ratioP2
41661;SDS011;27351;45.992;12.666;2023-03-25T00:00:03;49.63;;;32.58;;
41661;SDS011;27351;45.992;12.666;2023-03-25T00:02:35;53.33;;;31.83;;
41661;SDS011;27351;45.992;12.666;2023-03-25T00:05:02;49.25;;;30.77;;
41661;SDS011;27351;45.992;12.666;2023-03-25T00:07:28;45.38;;;29.50;;
41661;SDS011;27351;45.992;12.666;2023-03-25T00:09:53;45.93;;;29.80;;
41661;SDS011;27351;45.992;12.666;2023-03-25T00:12:19;45.20;;;30.07;;
41661;SDS011;27351;45.992;12.666;2023-03-25T00:14:45;48.50;;;30.07;;
41661;SDS011;27351;45.992;12.666;2023-03-25T00:17:21;46.83;;;29.93;;
41661;SDS011;27351;45.992;12.666;2023-03-25T00:19:47;47.03;;;29.77;;
41661;SDS011;27351;45.992;12.666;2023-03-25T00:22:15;47.38;;;30.85;;
41661;SDS011;27351;45.992;12.666;2023-03-25T00:24:41;48.08;;;30.27;;
41661;SDS011;27351;45.992;12.666;2023-03-25T00:27:07;49.73;;;31.67;;
41661;SDS011;27351;45.992;12.666;2023-03-25T00:29:32;47.77;;;29.60;;
41661;SDS011;27351;45.992;12.666;2023-03-25T00:31:58;47.53;;;30.20;;
41661;SDS011;27351;45.992;12.666;2023-03-25T00:34:23;46.53;;;30.30;;
41661;SDS011;27351;45.992;12.666;2023-03-25T00:36:49;53.60;;;32.00;;
41661;SDS011;27351;45.992;12.666;2023-03-25T00:39:15;47.70;;;29.80;;
41661;SDS011;27351;45.992;12.666;2023-03-25T00:41:40;47.28;;;29.60;;
41661;SDS011;27351;45.992;12.666;2023-03-25T00:44:08;48.50;;;29.85;;
41661;SDS011;27351;45.992;12.666;2023-03-25T00:46:36;44.15;;;29.70;;
41661;SDS011;27351;45.992;12.666;2023-03-25T00:49:02;45.80;;;28.02;;
41661;SDS011;27351;45.992;12.666;2023-03-25T00:51:28;45.95;;;28.52;;
41661;SDS011;27351;45.992;12.666;2023-03-25T00:53:56;44.07;;;29.70;;
41661;SDS011;27351;45.992;12.666;2023-03-25T00:56:24;43.20;;;27.67;;
41661;SDS011;27351;45.992;12.666;2023-03-25T00:58:50;42.80;;;27.50;;
41661;SDS011;27351;45.992;12.666;2023-03-25T01:01:16;44.03;;;28.08;;
41661;SDS011;27351;45.992;12.666;2023-03-25T01:03:43;45.90;;;28.60;;
41661;SDS011;27351;45.992;12.666;2023-03-25T01:08:36;44.95;;;28.10;;
41661;SDS011;27351;45.992;12.666;2023-03-25T01:11:01;45.25;;;28.65;;
41661;SDS011;27351;45.992;12.666;2023-03-25T01:13:27;42.03;;;26.83;;
41661;SDS011;27351;45.992;12.666;2023-03-25T01:15:52;43.03;;;27.40;;
41661;SDS011;27351;45.992;12.666;2023-03-25T01:18:18;41.53;;;27.88;;
41661;SDS011;27351;45.992;12.666;2023-03-25T01:20:44;42.65;;;27.42;;
41661;SDS011;27351;45.992;12.666;2023-03-25T01:23:09;41.65;;;27.08;;
41661;SDS011;27351;45.992;12.666;2023-03-25T01:25:35;43.60;;;27.98;;
41661;SDS011;27351;45.992;12.666;2023-03-25T01:28:01;38.22;;;24.95;;
41661;SDS011;27351;45.992;12.666;2023-03-25T01:30:27;38.17;;;25.00;;
41661;SDS011;27351;45.992;12.666;2023-03-25T01:32:53;38.35;;;24.42;;
41661;SDS011;27351;45.992;12.666;2023-03-25T01:35:19;38.83;;;23.50;;
41661;SDS011;27351;45.992;12.666;2023-03-25T01:37:45;38.17;;;23.80;;
41661;SDS011;27351;45.992;12.666;2023-03-25T01:40:21;33.47;;;23.42;;
41661;SDS011;27351;45.992;12.666;2023-03-25T01:42:48;32.42;;;22.00;;
41661;SDS011;27351;45.992;12.666;2023-03-25T01:47:39;34.47;;;21.95;;
41661;SDS011;27351;45.992;12.666;2023-03-25T01:50:05;30.87;;;21.00;;
41661;SDS011;27351;45.992;12.666;2023-03-25T01:52:38;30.90;;;20.98;;
41661;SDS011;27351;45.992;12.666;2023-03-25T01:55:05;30.75;;;22.05;;
41661;SDS011;27351;45.992;12.666;2023-03-25T01:57:32;31.75;;;21.35;;
41661;SDS011;27351;45.992;12.666;2023-03-25T01:59:57;32.43;;;19.63;;
41661;SDS011;27351;45.992;12.666;2023-03-25T02:02:23;29.70;;;19.63;;
41661;SDS011;27351;45.992;12.666;2023-03-25T02:05:22;29.30;;;18.60;;
41661;SDS011;27351;45.992;12.666;2023-03-25T02:07:47;26.00;;;18.05;;
41661;SDS011;27351;45.992;12.666;2023-03-25T02:10:14;26.53;;;17.30;;
41661;SDS011;27351;45.992;12.666;2023-03-25T02:12:39;26.27;;;16.50;;
41661;SDS011;27351;45.992;12.666;2023-03-25T02:15:06;24.40;;;16.08;;
41661;SDS011;27351;45.992;12.666;2023-03-25T02:28:28;22.95;;;14.35;;
41661;SDS011;27351;45.992;12.666;2023-03-25T02:38:57;20.10;;;14.43;;
41661;SDS011;27351;45.992;12.666;2023-03-25T02:44:09;21.05;;;14.23;;
41661;SDS011;27351;45.992;12.666;2023-03-25T02:46:35;20.88;;;14.35;;
41661;SDS011;27351;45.992;12.666;2023-03-25T02:49:04;21.92;;;13.90;;
41661;SDS011;27351;45.992;12.666;2023-03-25T02:54:33;18.10;;;12.40;;
41661;SDS011;27351;45.992;12.666;2023-03-25T02:57:02;20.73;;;13.63;;
41661;SDS011;27351;45.992;12.666;2023-03-25T02:59:28;19.73;;;13.77;;
41661;SDS011;27351;45.992;12.666;2023-03-25T03:02:01;20.90;;;13.77;;
41661;SDS011;27351;45.992;12.666;2023-03-25T03:04:28;17.60;;;12.20;;
41661;SDS011;27351;45.992;12.666;2023-03-25T03:06:54;19.88;;;12.93;;
41661;SDS011;27351;45.992;12.666;2023-03-25T03:09:23;20.13;;;12.75;;
41661;SDS011;27351;45.992;12.666;2023-03-25T03:12:07;21.80;;;12.63;;
41661;SDS011;27351;45.992;12.666;2023-03-25T03:14:41;18.87;;;13.20;;
41661;SDS011;27351;45.992;12.666;2023-03-25T03:22:12;18.58;;;12.32;;
41661;SDS011;27351;45.992;12.666;2023-03-25T03:27:29;17.80;;;11.53;;
41661;SDS011;27351;45.992;12.666;2023-03-25T03:30:06;19.10;;;11.85;;
41661;SDS011;27351;45.992;12.666;2023-03-25T03:32:55;18.08;;;12.30;;
41661;SDS011;27351;45.992;12.666;2023-03-25T03:35:27;19.23;;;11.70;;
41661;SDS011;27351;45.992;12.666;2023-03-25T03:37:57;15.70;;;11.10;;
41661;SDS011;27351;45.992;12.666;2023-03-25T03:40:23;17.67;;;11.65;;
41661;SDS011;27351;45.992;12.666;2023-03-25T03:45:25;19.13;;;13.10;;
41661;SDS011;27351;45.992;12.666;2023-03-25T03:47:52;19.80;;;12.82;;
41661;SDS011;27351;45.992;12.666;2023-03-25T03:50:22;18.23;;;12.52;;
41661;SDS011;27351;45.992;12.666;2023-03-25T03:53:00;17.52;;;11.63;;
41661;SDS011;27351;45.992;12.666;2023-03-25T03:55:30;18.37;;;12.17;;
41661;SDS011;27351;45.992;12.666;2023-03-25T03:57:58;18.40;;;12.10;;
41661;SDS011;27351;45.992;12.666;2023-03-25T04:00:30;18.33;;;12.48;;
41661;SDS011;27351;45.992;12.666;2023-03-25T04:03:08;18.55;;;12.02;;
41661;SDS011;27351;45.992;12.666;2023-03-25T04:05:39;17.42;;;11.60;;
41661;SDS011;27351;45.992;12.666;2023-03-25T04:08:10;20.38;;;12.25;;
41661;SDS011;27351;45.992;12.666;2023-03-25T04:10:51;18.27;;;11.68;;
41661;SDS011;27351;45.992;12.666;2023-03-25T04:13:19;19.15;;;11.77;;
41661;SDS011;27351;45.992;12.666;2023-03-25T04:15:45;18.92;;;11.93;;
41661;SDS011;27351;45.992;12.666;2023-03-25T04:18:11;19.65;;;11.80;;
41661;SDS011;27351;45.992;12.666;2023-03-25T04:20:37;15.60;;;11.70;;
41661;SDS011;27351;45.992;12.666;2023-03-25T04:23:09;17.73;;;11.90;;
41661;SDS011;27351;45.992;12.666;2023-03-25T04:25:41;18.40;;;11.60;;
41661;SDS011;27351;45.992;12.666;2023-03-25T04:28:07;17.30;;;11.70;;
41661;SDS011;27351;45.992;12.666;2023-03-25T04:30:33;17.73;;;11.30;;
41661;SDS011;27351;45.992;12.666;2023-03-25T04:32:58;19.17;;;11.77;;
41661;SDS011;27351;45.992;12.666;2023-03-25T04:35:25;17.92;;;11.60;;
41661;SDS011;27351;45.992;12.666;2023-03-25T04:37:50;17.35;;;11.23;;
41661;SDS011;27351;45.992;12.666;2023-03-25T04:40:18;20.00;;;12.18;;
41661;SDS011;27351;45.992;12.666;2023-03-25T04:42:44;17.52;;;12.57;;
41661;SDS011;27351;45.992;12.666;2023-03-25T04:45:11;18.67;;;12.50;;
41661;SDS011;27351;45.992;12.666;2023-03-25T04:47:39;18.53;;;12.53;;
41661;SDS011;27351;45.992;12.666;2023-03-25T04:50:14;18.23;;;11.82;;
41661;SDS011;27351;45.992;12.666;2023-03-25T04:52:42;21.20;;;12.55;;
41661;SDS011;27351;45.992;12.666;2023-03-25T04:55:07;18.93;;;12.53;;
41661;SDS011;27351;45.992;12.666;2023-03-25T04:57:33;18.23;;;12.05;;
41661;SDS011;27351;45.992;12.666;2023-03-25T04:59:59;18.05;;;11.90;;
41661;SDS011;27351;45.992;12.666;2023-03-25T05:02:24;20.27;;;13.70;;
41661;SDS011;27351;45.992;12.666;2023-03-25T05:04:51;19.55;;;12.55;;
41661;SDS011;27351;45.992;12.666;2023-03-25T05:07:18;19.40;;;12.57;;
41661;SDS011;27351;45.992;12.666;2023-03-25T05:09:44;18.13;;;12.97;;
41661;SDS011;27351;45.992;12.666;2023-03-25T05:12:09;18.00;;;11.95;;
41661;SDS011;27351;45.992;12.666;2023-03-25T05:14:35;21.15;;;13.93;;
41661;SDS011;27351;45.992;12.666;2023-03-25T05:17:01;20.17;;;13.30;;
41661;SDS011;27351;45.992;12.666;2023-03-25T05:19:26;19.80;;;13.05;;
41661;SDS011;27351;45.992;12.666;2023-03-25T05:21:53;18.80;;;13.02;;
41661;SDS011;27351;45.992;12.666;2023-03-25T05:24:20;21.23;;;13.70;;
41661;SDS011;27351;45.992;12.666;2023-03-25T05:26:46;19.80;;;13.33;;
41661;SDS011;27351;45.992;12.666;2023-03-25T05:29:13;19.63;;;13.80;;
41661;SDS011;27351;45.992;12.666;2023-03-25T05:31:39;21.03;;;14.13;;
41661;SDS011;27351;45.992;12.666;2023-03-25T05:34:05;21.10;;;13.90;;
41661;SDS011;27351;45.992;12.666;2023-03-25T05:36:32;21.65;;;15.05;;
41661;SDS011;27351;45.992;12.666;2023-03-25T05:38:58;19.77;;;14.53;;
41661;SDS011;27351;45.992;12.666;2023-03-25T05:41:25;19.53;;;14.30;;
41661;SDS011;27351;45.992;12.666;2023-03-25T05:43:59;19.48;;;13.55;;
41661;SDS011;27351;45.992;12.666;2023-03-25T05:46:26;20.50;;;13.80;;
41661;SDS011;27351;45.992;12.666;2023-03-25T05:48:52;20.40;;;13.35;;
41661;SDS011;27351;45.992;12.666;2023-03-25T05:51:18;20.60;;;14.15;;
41661;SDS011;27351;45.992;12.666;2023-03-25T05:53:46;20.83;;;14.02;;
41661;SDS011;27351;45.992;12.666;2023-03-25T05:56:15;22.08;;;14.32;;
41661;SDS011;27351;45.992;12.666;2023-03-25T05:58:42;21.08;;;14.43;;
41661;SDS011;27351;45.992;12.666;2023-03-25T06:01:11;20.20;;;14.77;;
41661;SDS011;27351;45.992;12.666;2023-03-25T06:03:40;21.55;;;14.60;;
41661;SDS011;27351;45.992;12.666;2023-03-25T06:06:09;20.20;;;13.33;;
41661;SDS011;27351;45.992;12.666;2023-03-25T06:08:42;22.10;;;13.68;;
41661;SDS011;27351;45.992;12.666;2023-03-25T06:11:08;21.25;;;13.52;;
41661;SDS011;27351;45.992;12.666;2023-03-25T06:13:34;20.83;;;13.55;;
41661;SDS011;27351;45.992;12.666;2023-03-25T06:16:05;23.75;;;13.75;;
41661;SDS011;27351;45.992;12.666;2023-03-25T06:18:33;20.40;;;13.50;;
41661;SDS011;27351;45.992;12.666;2023-03-25T06:20:59;18.40;;;12.60;;
41661;SDS011;27351;45.992;12.666;2023-03-25T06:23:25;19.20;;;13.48;;
41661;SDS011;27351;45.992;12.666;2023-03-25T06:25:52;21.43;;;13.50;;
41661;SDS011;27351;45.992;12.666;2023-03-25T06:28:18;20.02;;;13.25;;
41661;SDS011;27351;45.992;12.666;2023-03-25T06:30:44;20.45;;;12.32;;
41661;SDS011;27351;45.992;12.666;2023-03-25T06:33:10;19.25;;;13.48;;
41661;SDS011;27351;45.992;12.666;2023-03-25T06:35:35;17.67;;;12.63;;
41661;SDS011;27351;45.992;12.666;2023-03-25T06:38:01;20.10;;;14.37;;
41661;SDS011;27351;45.992;12.666;2023-03-25T06:40:40;21.42;;;14.52;;
41661;SDS011;27351;45.992;12.666;2023-03-25T06:43:06;22.23;;;14.27;;
41661;SDS011;27351;45.992;12.666;2023-03-25T06:45:32;19.13;;;13.73;;
41661;SDS011;27351;45.992;12.666;2023-03-25T06:48:07;19.15;;;13.60;;
41661;SDS011;27351;45.992;12.666;2023-03-25T06:50:32;19.75;;;13.93;;
41661;SDS011;27351;45.992;12.666;2023-03-25T06:52:58;21.08;;;14.32;;
41661;SDS011;27351;45.992;12.666;2023-03-25T06:55:23;20.58;;;14.77;;
41661;SDS011;27351;45.992;12.666;2023-03-25T06:57:53;20.35;;;14.20;;
41661;SDS011;27351;45.992;12.666;2023-03-25T07:00:18;19.95;;;13.75;;
41661;SDS011;27351;45.992;12.666;2023-03-25T07:02:47;20.40;;;14.73;;
41661;SDS011;27351;45.992;12.666;2023-03-25T07:05:13;19.53;;;14.53;;
41661;SDS011;27351;45.992;12.666;2023-03-25T07:07:38;23.07;;;15.33;;
41661;SDS011;27351;45.992;12.666;2023-03-25T07:10:04;21.85;;;15.07;;
41661;SDS011;27351;45.992;12.666;2023-03-25T07:12:32;23.88;;;16.90;;
41661;SDS011;27351;45.992;12.666;2023-03-25T07:14:58;23.33;;;16.33;;
41661;SDS011;27351;45.992;12.666;2023-03-25T07:17:24;23.02;;;15.82;;
41661;SDS011;27351;45.992;12.666;2023-03-25T07:19:50;25.73;;;16.27;;
41661;SDS011;27351;45.992;12.666;2023-03-25T07:22:15;24.50;;;16.63;;
41661;SDS011;27351;45.992;12.666;2023-03-25T07:24:41;25.35;;;16.50;;
41661;SDS011;27351;45.992;12.666;2023-03-25T07:27:09;24.02;;;16.58;;
41661;SDS011;27351;45.992;12.666;2023-03-25T07:29:35;23.47;;;16.27;;
41661;SDS011;27351;45.992;12.666;2023-03-25T07:32:01;23.77;;;16.98;;
41661;SDS011;27351;45.992;12.666;2023-03-25T07:34:26;22.70;;;15.60;;
41661;SDS011;27351;45.992;12.666;2023-03-25T07:36:52;25.43;;;17.20;;
41661;SDS011;27351;45.992;12.666;2023-03-25T07:39:17;24.77;;;16.47;;
41661;SDS011;27351;45.992;12.666;2023-03-25T07:41:43;26.13;;;18.00;;
41661;SDS011;27351;45.992;12.666;2023-03-25T07:44:20;23.63;;;16.00;;
41661;SDS011;27351;45.992;12.666;2023-03-25T07:46:47;25.02;;;16.00;;
41661;SDS011;27351;45.992;12.666;2023-03-25T07:49:13;22.35;;;14.95;;
41661;SDS011;27351;45.992;12.666;2023-03-25T07:51:39;23.88;;;14.55;;
41661;SDS011;27351;45.992;12.666;2023-03-25T07:54:04;23.25;;;15.05;;
41661;SDS011;27351;45.992;12.666;2023-03-25T07:56:30;22.40;;;14.32;;
41661;SDS011;27351;45.992;12.666;2023-03-25T07:58:56;20.38;;;14.60;;
41661;SDS011;27351;45.992;12.666;2023-03-25T08:01:21;21.30;;;15.10;;
41661;SDS011;27351;45.992;12.666;2023-03-25T08:03:47;22.83;;;15.50;;
41661;SDS011;27351;45.992;12.666;2023-03-25T08:06:12;22.77;;;15.53;;
41661;SDS011;27351;45.992;12.666;2023-03-25T08:08:38;23.37;;;15.27;;
41661;SDS011;27351;45.992;12.666;2023-03-25T08:11:04;22.30;;;14.60;;
41661;SDS011;27351;45.992;12.666;2023-03-25T08:13:30;24.00;;;15.43;;
41661;SDS011;27351;45.992;12.666;2023-03-25T08:15:56;22.08;;;15.50;;
41661;SDS011;27351;45.992;12.666;2023-03-25T08:18:22;19.65;;;13.52;;
41661;SDS011;27351;45.992;12.666;2023-03-25T08:20:48;21.02;;;14.30;;
41661;SDS011;27351;45.992;12.666;2023-03-25T08:23:15;20.53;;;13.57;;
41661;SDS011;27351;45.992;12.666;2023-03-25T08:25:44;20.40;;;14.07;;
41661;SDS011;27351;45.992;12.666;2023-03-25T08:28:09;20.67;;;13.20;;
41661;SDS011;27351;45.992;12.666;2023-03-25T08:30:35;22.52;;;14.15;;
41661;SDS011;27351;45.992;12.666;2023-03-25T08:33:03;20.48;;;14.38;;
41661;SDS011;27351;45.992;12.666;2023-03-25T08:35:28;19.65;;;13.13;;
41661;SDS011;27351;45.992;12.666;2023-03-25T08:37:54;22.35;;;13.70;;
41661;SDS011;27351;45.992;12.666;2023-03-25T08:40:20;19.23;;;12.83;;
41661;SDS011;27351;45.992;12.666;2023-03-25T08:42:46;20.33;;;12.77;;
41661;SDS011;27351;45.992;12.666;2023-03-25T08:45:11;21.35;;;14.18;;
41661;SDS011;27351;45.992;12.666;2023-03-25T08:47:37;17.17;;;12.32;;
41661;SDS011;27351;45.992;12.666;2023-03-25T08:50:03;21.60;;;12.50;;
41661;SDS011;27351;45.992;12.666;2023-03-25T08:52:29;19.98;;;12.15;;
41661;SDS011;27351;45.992;12.666;2023-03-25T08:54:55;20.67;;;12.33;;
41661;SDS011;27351;45.992;12.666;2023-03-25T08:57:20;24.23;;;14.00;;
41661;SDS011;27351;45.992;12.666;2023-03-25T08:59:46;21.80;;;13.77;;
41661;SDS011;27351;45.992;12.666;2023-03-25T09:02:11;23.77;;;13.93;;
41661;SDS011;27351;45.992;12.666;2023-03-25T09:04:37;23.98;;;14.48;;
41661;SDS011;27351;45.992;12.666;2023-03-25T09:07:06;22.25;;;14.20;;
41661;SDS011;27351;45.992;12.666;2023-03-25T09:09:37;21.17;;;13.95;;
41661;SDS011;27351;45.992;12.666;2023-03-25T09:12:03;22.63;;;14.05;;
41661;SDS011;27351;45.992;12.666;2023-03-25T09:14:29;22.20;;;14.68;;
41661;SDS011;27351;45.992;12.666;2023-03-25T09:16:55;25.07;;;15.00;;
41661;SDS011;27351;45.992;12.666;2023-03-25T09:19:20;24.55;;;14.88;;
41661;SDS011;27351;45.992;12.666;2023-03-25T09:21:46;20.92;;;14.48;;
41661;SDS011;27351;45.992;12.666;2023-03-25T09:24:12;24.50;;;15.77;;
41661;SDS011;27351;45.992;12.666;2023-03-25T09:26:38;24.33;;;14.48;;
41661;SDS011;27351;45.992;12.666;2023-03-25T09:29:03;23.88;;;13.70;;
41661;SDS011;27351;45.992;12.666;2023-03-25T09:31:29;23.52;;;14.18;;
41661;SDS011;27351;45.992;12.666;2023-03-25T09:33:55;21.90;;;14.18;;
41661;SDS011;27351;45.992;12.666;2023-03-25T09:36:20;23.17;;;14.53;;
41661;SDS011;27351;45.992;12.666;2023-03-25T09:38:46;22.57;;;14.80;;
41661;SDS011;27351;45.992;12.666;2023-03-25T09:41:22;22.37;;;14.43;;
41661;SDS011;27351;45.992;12.666;2023-03-25T09:46:21;23.05;;;14.40;;
41661;SDS011;27351;45.992;12.666;2023-03-25T09:48:46;22.08;;;14.52;;
41661;SDS011;27351;45.992;12.666;2023-03-25T09:56:05;23.50;;;14.53;;
41661;SDS011;27351;45.992;12.666;2023-03-25T09:58:47;22.88;;;14.60;;
41661;SDS011;27351;45.992;12.666;2023-03-25T10:06:41;23.58;;;15.25;;
41661;SDS011;27351;45.992;12.666;2023-03-25T10:22:05;23.60;;;15.30;;
41661;SDS011;27351;45.992;12.666;2023-03-25T10:24:34;22.30;;;15.30;;
41661;SDS011;27351;45.992;12.666;2023-03-25T10:29:32;21.10;;;15.20;;
41661;SDS011;27351;45.992;12.666;2023-03-25T10:32:01;22.42;;;15.32;;
41661;SDS011;27351;45.992;12.666;2023-03-25T10:34:38;22.17;;;15.73;;
41661;SDS011;27351;45.992;12.666;2023-03-25T10:37:09;22.70;;;14.73;;
41661;SDS011;27351;45.992;12.666;2023-03-25T10:39:37;20.83;;;14.93;;
41661;SDS011;27351;45.992;12.666;2023-03-25T10:42:13;22.92;;;15.18;;
41661;SDS011;27351;45.992;12.666;2023-03-25T10:44:41;23.27;;;16.48;;
41661;SDS011;27351;45.992;12.666;2023-03-25T10:47:10;22.57;;;16.90;;
41661;SDS011;27351;45.992;12.666;2023-03-25T10:49:39;24.40;;;17.48;;
41661;SDS011;27351;45.992;12.666;2023-03-25T10:52:06;26.13;;;18.77;;
41661;SDS011;27351;45.992;12.666;2023-03-25T10:54:33;26.80;;;19.00;;
41661;SDS011;27351;45.992;12.666;2023-03-25T10:57:01;23.23;;;17.63;;
41661;SDS011;27351;45.992;12.666;2023-03-25T10:59:29;26.00;;;16.93;;
41661;SDS011;27351;45.992;12.666;2023-03-25T11:01:56;26.60;;;18.50;;
41661;SDS011;27351;45.992;12.666;2023-03-25T11:07:27;20.33;;;13.07;;
41661;SDS011;27351;45.992;12.666;2023-03-25T11:10:16;23.42;;;17.23;;
41661;SDS011;27351;45.992;12.666;2023-03-25T11:12:40;28.88;;;18.23;;
41661;SDS011;27351;45.992;12.666;2023-03-25T11:20:55;20.95;;;15.73;;
41661;SDS011;27351;45.992;12.666;2023-03-25T14:02:13;10.90;;;7.25;;
41661;SDS011;27351;45.992;12.666;2023-03-25T14:12:00;10.95;;;7.00;;
41661;SDS011;27351;45.992;12.666;2023-03-25T14:14:27;14.25;;;7.70;;
41661;SDS011;27351;45.992;12.666;2023-03-25T14:16:57;11.90;;;6.97;;
41661;SDS011;27351;45.992;12.666;2023-03-25T14:19:26;11.65;;;6.38;;
41661;SDS011;27351;45.992;12.666;2023-03-25T14:21:53;9.38;;;5.72;;
41661;SDS011;27351;45.992;12.666;2023-03-25T14:26:48;9.95;;;6.20;;
41661;SDS011;27351;45.992;12.666;2023-03-25T14:29:20;9.65;;;5.75;;
41661;SDS011;27351;45.992;12.666;2023-03-25T14:34:27;9.85;;;5.32;;
41661;SDS011;27351;45.992;12.666;2023-03-25T14:44:27;9.32;;;4.38;;
41661;SDS011;27351;45.992;12.666;2023-03-25T14:49:53;7.07;;;4.07;;
41661;SDS011;27351;45.992;12.666;2023-03-25T14:55:39;7.85;;;4.40;;
41661;SDS011;27351;45.992;12.666;2023-03-25T14:57:58;8.40;;;4.40;;
41661;SDS011;27351;45.992;12.666;2023-03-25T15:00:27;10.00;;;4.35;;
41661;SDS011;27351;45.992;12.666;2023-03-25T15:03:28;7.43;;;4.35;;
41661;SDS011;27351;45.992;12.666;2023-03-25T15:05:55;7.63;;;3.97;;
41661;SDS011;27351;45.992;12.666;2023-03-25T15:08:23;7.25;;;3.90;;
41661;SDS011;27351;45.992;12.666;2023-03-25T15:11:02;7.10;;;3.60;;
41661;SDS011;27351;45.992;12.666;2023-03-25T15:13:41;7.18;;;3.60;;
41661;SDS011;27351;45.992;12.666;2023-03-25T15:16:18;7.60;;;3.50;;
41661;SDS011;27351;45.992;12.666;2023-03-25T15:21:14;6.38;;;3.55;;
41661;SDS011;27351;45.992;12.666;2023-03-25T15:24:09;5.80;;;3.40;;
41661;SDS011;27351;45.992;12.666;2023-03-25T15:26:42;6.45;;;3.33;;
41661;SDS011;27351;45.992;12.666;2023-03-25T15:29:15;6.68;;;3.42;;
41661;SDS011;27351;45.992;12.666;2023-03-25T15:34:33;5.87;;;3.53;;
41661;SDS011;27351;45.992;12.666;2023-03-25T15:39:41;6.78;;;3.35;;
41661;SDS011;27351;45.992;12.666;2023-03-25T15:50:04;11.30;;;6.00;;
41661;SDS011;27351;45.992;12.666;2023-03-25T15:55:16;8.13;;;4.65;;
41661;SDS011;27351;45.992;12.666;2023-03-25T15:57:45;6.45;;;3.70;;
41661;SDS011;27351;45.992;12.666;2023-03-25T16:05:34;6.28;;;3.70;;
41661;SDS011;27351;45.992;12.666;2023-03-25T16:08:21;6.32;;;3.95;;
41661;SDS011;27351;45.992;12.666;2023-03-25T16:10:49;6.78;;;4.10;;
41661;SDS011;27351;45.992;12.666;2023-03-25T16:13:16;9.77;;;4.10;;
41661;SDS011;27351;45.992;12.666;2023-03-25T16:15:52;7.63;;;3.72;;
41661;SDS011;27351;45.992;12.666;2023-03-25T16:18:19;5.80;;;3.72;;
41661;SDS011;27351;45.992;12.666;2023-03-25T16:20:45;5.60;;;3.60;;
41661;SDS011;27351;45.992;12.666;2023-03-25T16:23:15;7.97;;;4.53;;
41661;SDS011;27351;45.992;12.666;2023-03-25T16:25:42;8.40;;;4.03;;
41661;SDS011;27351;45.992;12.666;2023-03-25T16:28:14;10.38;;;4.57;;
41661;SDS011;27351;45.992;12.666;2023-03-25T16:30:41;9.23;;;3.97;;
41661;SDS011;27351;45.992;12.666;2023-03-25T16:35:35;9.30;;;4.40;;
41661;SDS011;27351;45.992;12.666;2023-03-25T16:38:01;9.55;;;5.03;;
41661;SDS011;27351;45.992;12.666;2023-03-25T16:40:29;10.03;;;5.17;;
41661;SDS011;27351;45.992;12.666;2023-03-25T16:43:02;7.13;;;4.55;;
41661;SDS011;27351;45.992;12.666;2023-03-25T16:45:28;8.70;;;4.70;;
41661;SDS011;27351;45.992;12.666;2023-03-25T16:47:54;12.90;;;5.32;;
41661;SDS011;27351;45.992;12.666;2023-03-25T16:50:20;11.57;;;6.00;;
41661;SDS011;27351;45.992;12.666;2023-03-25T16:52:49;10.90;;;6.10;;
41661;SDS011;27351;45.992;12.666;2023-03-25T16:55:27;9.93;;;6.65;;
41661;SDS011;27351;45.992;12.666;2023-03-25T16:57:53;10.75;;;6.70;;
41661;SDS011;27351;45.992;12.666;2023-03-25T17:00:19;12.02;;;6.15;;
41661;SDS011;27351;45.992;12.666;2023-03-25T17:02:46;11.05;;;6.38;;
41661;SDS011;27351;45.992;12.666;2023-03-25T17:05:20;13.32;;;6.80;;
41661;SDS011;27351;45.992;12.666;2023-03-25T17:07:47;11.15;;;5.88;;
41661;SDS011;27351;45.992;12.666;2023-03-25T17:10:16;8.50;;;5.83;;
41661;SDS011;27351;45.992;12.666;2023-03-25T17:12:43;9.25;;;5.93;;
41661;SDS011;27351;45.992;12.666;2023-03-25T17:15:12;12.70;;;5.53;;
41661;SDS011;27351;45.992;12.666;2023-03-25T17:17:40;9.87;;;5.80;;
41661;SDS011;27351;45.992;12.666;2023-03-25T17:20:12;13.25;;;5.93;;
41661;SDS011;27351;45.992;12.666;2023-03-25T17:22:40;10.60;;;5.88;;
41661;SDS011;27351;45.992;12.666;2023-03-25T17:27:43;14.32;;;6.35;;
41661;SDS011;27351;45.992;12.666;2023-03-25T17:30:50;10.25;;;6.10;;
41661;SDS011;27351;45.992;12.666;2023-03-25T17:33:10;11.48;;;6.60;;
41661;SDS011;27351;45.992;12.666;2023-03-25T17:35:36;10.77;;;6.60;;
41661;SDS011;27351;45.992;12.666;2023-03-25T17:38:02;10.63;;;6.78;;
41661;SDS011;27351;45.992;12.666;2023-03-25T17:40:28;12.50;;;6.55;;
41661;SDS011;27351;45.992;12.666;2023-03-25T17:42:54;12.88;;;6.60;;
41661;SDS011;27351;45.992;12.666;2023-03-25T17:45:21;10.93;;;6.57;;
41661;SDS011;27351;45.992;12.666;2023-03-25T17:47:47;11.60;;;7.28;;
41661;SDS011;27351;45.992;12.666;2023-03-25T17:50:18;13.27;;;7.95;;
41661;SDS011;27351;45.992;12.666;2023-03-25T17:52:45;13.02;;;7.25;;
41661;SDS011;27351;45.992;12.666;2023-03-25T17:55:10;13.48;;;7.38;;
41661;SDS011;27351;45.992;12.666;2023-03-25T17:57:36;12.55;;;7.90;;
41661;SDS011;27351;45.992;12.666;2023-03-25T18:00:03;10.67;;;6.73;;
41661;SDS011;27351;45.992;12.666;2023-03-25T18:02:34;11.97;;;6.90;;
41661;SDS011;27351;45.992;12.666;2023-03-25T18:04:59;12.37;;;7.73;;
41661;SDS011;27351;45.992;12.666;2023-03-25T18:07:25;11.30;;;7.30;;
41661;SDS011;27351;45.992;12.666;2023-03-25T18:09:51;14.57;;;8.18;;
41661;SDS011;27351;45.992;12.666;2023-03-25T18:12:18;11.13;;;7.32;;
41661;SDS011;27351;45.992;12.666;2023-03-25T18:14:44;12.70;;;8.33;;
41661;SDS011;27351;45.992;12.666;2023-03-25T18:17:10;11.87;;;7.40;;
41661;SDS011;27351;45.992;12.666;2023-03-25T18:19:36;13.20;;;7.53;;
41661;SDS011;27351;45.992;12.666;2023-03-25T18:22:02;12.35;;;7.72;;
41661;SDS011;27351;45.992;12.666;2023-03-25T18:24:28;13.98;;;8.93;;
41661;SDS011;27351;45.992;12.666;2023-03-25T18:26:53;12.38;;;7.53;;
41661;SDS011;27351;45.992;12.666;2023-03-25T18:29:21;12.15;;;7.18;;
41661;SDS011;27351;45.992;12.666;2023-03-25T18:31:48;13.80;;;8.48;;
41661;SDS011;27351;45.992;12.666;2023-03-25T18:34:14;13.30;;;8.52;;
41661;SDS011;27351;45.992;12.666;2023-03-25T18:36:40;12.88;;;7.97;;
41661;SDS011;27351;45.992;12.666;2023-03-25T18:39:10;11.93;;;8.38;;
41661;SDS011;27351;45.992;12.666;2023-03-25T18:41:36;12.70;;;8.23;;
41661;SDS011;27351;45.992;12.666;2023-03-25T18:44:01;17.20;;;8.90;;
41661;SDS011;27351;45.992;12.666;2023-03-25T18:46:27;12.63;;;8.45;;
41661;SDS011;27351;45.992;12.666;2023-03-25T18:48:52;12.65;;;8.60;;
41661;SDS011;27351;45.992;12.666;2023-03-25T18:51:20;14.77;;;10.90;;
41661;SDS011;27351;45.992;12.666;2023-03-25T18:53:45;15.83;;;10.60;;
41661;SDS011;27351;45.992;12.666;2023-03-25T18:56:13;15.38;;;11.40;;
41661;SDS011;27351;45.992;12.666;2023-03-25T18:58:38;19.08;;;10.98;;
41661;SDS011;27351;45.992;12.666;2023-03-25T19:01:04;16.08;;;10.45;;
41661;SDS011;27351;45.992;12.666;2023-03-25T19:03:31;14.48;;;10.07;;
41661;SDS011;27351;45.992;12.666;2023-03-25T19:06:10;16.55;;;11.30;;
41661;SDS011;27351;45.992;12.666;2023-03-25T19:08:36;14.68;;;10.48;;